Padroni, CO (80745)

6:42 PM MDT on March 30, 2015 (GMT -0600)
Ballpark | | Change Station
CLOSE
Current Station
Personal Weather Station
Location: Sterling, CO
Elevation: 4006 ft
Nearby Weather Stations
Active Advisory: Fire Weather Warning

Elev 4006 ft 40.63 °N, 103.24 °W | Updated 17 seconds ago

Clear
Clear
69.3 °F
Feels Like 69.3 °F
N
1.1
Wind Variable Wind from ENE
Gusts 2.5 mph

Today
High -- | Low -- °F
--% Chance of Precip.
Yesterday
High -- | Low -- °F
Precip. -- in
6:40 AM 7:15 PM
Waxing Gibbous, 83% visible
Pressure 30.03 in
Visibility 10.0 miles
Clouds Clear
Dew Point 23 °F
Humidity 17%
Rainfall 0.00 in
Snow Depth Not available.
UV 1.0 out of 12
Pollen 11.10 out of 12
Air Quality Not available.
Flu Activity Not available.
METAR KSTK 310030Z AUTO 07003KT 10SM CLR 20/M04 A3003 RMK AO2

More Conditions Fewer Conditions

Pressure 30.03 in
Visibility 10.0 miles
Clouds Clear
Dew Point 23 °F
Humidity 17%
Rainfall 0.00 in
Snow Depth Not available.
UV 1.0 out of 12
Pollen 11.10 out of 12
Air Quality Not available.
Flu Activity Not available.
METAR KSTK 310030Z AUTO 07003KT 10SM CLR 20/M04 A3003 RMK AO2

More Conditions Fewer Conditions

10-Day Weather Forecast

Almanac

Astronomy

Mar. 30, 2015 Rise Set
Actual Time
Civil Twilight
Nautical Twilight
Astronomical Twilight
Moon
Length of Visible Light
Length of Day
Tomorrow will be .
, % of the Moon is Illuminated

Today's Extremes

State Highs State Lows

Community

WunderPhotos

Upload Photos

1,809,638 photos uploaded!

WunderBlogs® & News

Nearby

Air Quality

  Air Quality AQ Index Pollutant
Not available.

Snow Depth

Station Depth Elevation

Earthquake Activity

City Distance Mag. Time & Date
Minimum magnitude displayed is 2.5.

Coastal Water Temperatures

Place Temperature

Stations

Nearby Weather Stations

Station Location Temp. Windchill Dew Point Humidity Wind Precip. Elev Updated Type
                   
Fire Weather Warning
Statement as of 2:18 PM MDT on March 30, 2015

... Red flag warning in effect until 7 PM MDT this evening for
wind and low relative humidity for northeast Weld County... Logan
County and Washington County Colorado.

The National Weather Service in Denver has issued a red flag
warning for wind and low relative humidity... which is in effect
until 7 PM MDT this evening.

* Affected area... fire weather zones 242... 248 and 249.

* Timing... the remainder of the afternoon into early evening

* winds... north 10 to 15 mph with gusts up to 20 mph.

* Relative humidity... as low as 12 percent.

* Impacts... small fires can blow up into large scale fires under
red flag conditions.

Precautionary/preparedness actions...

A red flag warning means that critical fire weather conditions
are either occurring now... or will shortly. A combination of
strong winds... low relative humidity... and warm temperatures can
contribute to extreme fire behavior.